Lake City, Arkansas
Current Conditions -  °F | °C
As of 1:53 AM on Sunday 23 Nov 2014 (Local Time) from KJBR Reporting Station
Clear Clear  
Wind Chill: 43°   Ceiling: Unl
Heat Index: 46°   Visibility: 10mi
Dew Point: 43°   Wind: 6mph
Humidity: 89%   Direction: 50°NE
Pressure: 29.84"   Gusts: NA
Location:  35.82°N, 90.43°W
Report Text: KJBR 230753Z AUTO 05005KT 10SM CLR 08/06 A2984 RMK AO2 SLP105 T00780061 $
Loading
Personal Weather Stations






























Interactive Weather Map New forecast layout! Learn more

10-Day Weather Forecast

Advertisements
Track Severe Weather on mobile